createdAt,value
2022-09-15T00:01:54.796Z,12.42
2022-09-15T00:04:23.880Z,12.43
2022-09-15T00:06:53.281Z,12.41
2022-09-15T00:09:22.008Z,12.37
2022-09-15T00:11:50.825Z,12.40
2022-09-15T00:14:21.121Z,12.51
2022-09-15T00:16:49.671Z,12.50
2022-09-15T00:19:18.452Z,12.60
2022-09-15T00:21:47.706Z,12.71
2022-09-15T00:24:17.363Z,12.69
2022-09-15T00:26:46.910Z,12.79
2022-09-15T00:29:16.049Z,12.58
2022-09-15T00:31:46.845Z,12.89
2022-09-15T00:34:16.804Z,12.82
2022-09-15T00:36:45.510Z,12.76
2022-09-15T00:39:16.151Z,12.66
2022-09-15T00:41:46.505Z,12.79
2022-09-15T00:44:50.322Z,12.82
2022-09-15T00:47:25.307Z,12.76
2022-09-15T00:49:59.368Z,12.68
2022-09-15T00:52:34.586Z,12.78
2022-09-15T00:55:07.459Z,12.66
2022-09-15T00:57:41.137Z,12.68
2022-09-15T01:00:13.214Z,12.70
2022-09-15T01:02:45.940Z,12.79
2022-09-15T01:05:22.918Z,12.90
2022-09-15T01:07:58.675Z,12.65
2022-09-15T01:10:33.094Z,12.82
2022-09-15T01:13:03.672Z,12.49
2022-09-15T01:15:40.504Z,12.42
2022-09-15T01:18:20.419Z,12.29
2022-09-15T01:21:29.059Z,12.32
2022-09-15T01:24:26.718Z,12.18
2022-09-15T01:27:30.432Z,12.10
2022-09-15T01:30:09.797Z,12.20
2022-09-15T01:33:06.020Z,11.97
2022-09-15T01:35:53.002Z,11.96
2022-09-15T01:38:32.675Z,12.06
2022-09-15T01:41:08.608Z,12.00
2022-09-15T01:43:43.159Z,11.95
2022-09-15T01:46:17.050Z,12.02
2022-09-15T01:48:48.210Z,12.21
2022-09-15T01:51:18.832Z,12.14
2022-09-15T01:53:49.327Z,12.31
2022-09-15T01:56:18.712Z,12.38
2022-09-15T01:58:47.504Z,12.64
2022-09-15T02:01:23.473Z,12.53
2022-09-15T02:03:56.953Z,12.76
2022-09-15T02:06:33.735Z,12.61
2022-09-15T02:09:05.319Z,12.55
2022-09-15T02:11:36.897Z,12.52
2022-09-15T02:14:13.458Z,12.43
2022-09-15T02:16:47.588Z,12.39
2022-09-15T02:19:21.632Z,12.52
2022-09-15T02:21:57.736Z,12.52
2022-09-15T02:24:34.009Z,12.59
2022-09-15T02:27:04.952Z,12.59
2022-09-15T02:29:38.072Z,12.05
2022-09-15T02:32:09.639Z,12.00
2022-09-15T02:34:42.276Z,12.92
2022-09-15T02:37:11.501Z,12.80
2022-09-15T02:39:44.646Z,13.05
2022-09-15T02:42:12.659Z,13.00
2022-09-15T02:44:41.305Z,13.15
2022-09-15T02:47:10.621Z,13.13
2022-09-15T02:49:38.491Z,12.70
2022-09-15T02:52:07.423Z,13.08
2022-09-15T02:54:35.335Z,13.01
2022-09-15T02:57:03.397Z,13.08
2022-09-15T02:59:51.564Z,13.09
2022-09-15T03:02:21.178Z,13.04
2022-09-15T03:04:49.425Z,13.09
2022-09-15T03:07:18.349Z,13.32
2022-09-15T03:09:46.585Z,13.30
2022-09-15T03:12:16.140Z,12.81
2022-09-15T03:14:44.399Z,13.31
2022-09-15T03:17:12.276Z,12.74
2022-09-15T03:19:41.931Z,13.10
2022-09-15T03:22:10.431Z,12.67
2022-09-15T03:24:39.246Z,12.79
2022-09-15T03:27:07.303Z,12.82
2022-09-15T03:29:35.219Z,12.41
2022-09-15T03:32:03.767Z,12.66
2022-09-15T03:34:31.850Z,12.76
2022-09-15T03:37:01.473Z,12.54
2022-09-15T03:39:29.519Z,12.49
2022-09-15T03:41:57.356Z,12.32
2022-09-15T03:44:25.624Z,12.20
2022-09-15T03:46:53.609Z,12.41
2022-09-15T03:49:21.694Z,12.33
2022-09-15T03:51:49.545Z,12.27
2022-09-15T03:54:19.583Z,12.24
2022-09-15T03:56:49.059Z,12.25
2022-09-15T03:59:18.875Z,12.17
2022-09-15T04:01:47.785Z,12.22
2022-09-15T04:04:16.409Z,12.20
2022-09-15T04:06:44.951Z,12.27
2022-09-15T04:09:12.955Z,12.29
2022-09-15T04:11:42.898Z,11.77
2022-09-15T04:14:10.945Z,12.48
2022-09-15T04:16:39.134Z,12.52
2022-09-15T04:19:07.535Z,12.86
2022-09-15T04:21:35.529Z,12.96
2022-09-15T04:24:04.912Z,13.11
2022-09-15T04:26:35.119Z,12.96
2022-09-15T04:29:11.933Z,13.01
2022-09-15T04:31:39.918Z,12.91
2022-09-15T04:34:07.736Z,12.92
2022-09-15T04:36:35.601Z,13.06
2022-09-15T04:39:03.602Z,12.29
2022-09-15T04:41:31.478Z,12.75
2022-09-15T04:43:59.805Z,12.80
2022-09-15T04:46:29.512Z,12.88
2022-09-15T04:48:57.835Z,12.89
2022-09-15T04:51:27.548Z,12.81
2022-09-15T04:53:55.733Z,12.75
2022-09-15T04:56:25.598Z,12.67
2022-09-15T04:58:59.543Z,12.63
2022-09-15T05:01:34.177Z,12.32
2022-09-15T05:04:03.817Z,12.53
2022-09-15T05:06:31.818Z,12.59
2022-09-15T05:08:59.954Z,12.67
2022-09-15T05:11:28.632Z,12.68
2022-09-15T05:13:56.610Z,12.81
2022-09-15T05:16:26.082Z,12.63
2022-09-15T05:18:57.538Z,12.76
2022-09-15T05:21:26.034Z,12.61
2022-09-15T05:23:54.356Z,12.78
2022-09-15T05:26:24.269Z,12.91
2022-09-15T05:28:52.700Z,12.94
2022-09-15T05:31:22.612Z,12.75
2022-09-15T05:33:53.044Z,12.86
2022-09-15T05:36:25.140Z,12.09
2022-09-15T05:38:56.526Z,12.98
2022-09-15T05:41:25.174Z,13.02
2022-09-15T05:43:54.432Z,12.65
2022-09-15T05:46:22.556Z,13.02
2022-09-15T05:48:50.719Z,13.29
2022-09-15T05:51:18.641Z,13.17
2022-09-15T05:53:47.952Z,13.46
2022-09-15T05:56:17.480Z,13.54
2022-09-15T05:58:47.667Z,13.55
2022-09-15T06:01:16.492Z,13.53
2022-09-15T06:03:44.990Z,13.51
2022-09-15T06:06:13.247Z,13.58
2022-09-15T06:08:44.403Z,13.68
2022-09-15T06:11:16.230Z,13.38
2022-09-15T06:13:45.109Z,13.63
2022-09-15T06:16:14.257Z,13.87
2022-09-15T06:18:43.026Z,13.70
2022-09-15T06:21:13.504Z,13.84
2022-09-15T06:23:44.119Z,13.96
2022-09-15T06:26:19.612Z,14.12
2022-09-15T06:28:50.343Z,14.20
2022-09-15T06:31:18.537Z,13.70
2022-09-15T06:33:48.634Z,13.96
2022-09-15T06:36:17.096Z,14.15
2022-09-15T06:38:46.825Z,14.15
2022-09-15T06:41:16.917Z,13.77
2022-09-15T06:43:45.686Z,13.99
2022-09-15T06:46:15.877Z,14.17
2022-09-15T06:48:48.122Z,14.27
2022-09-15T06:51:18.747Z,14.09
2022-09-15T06:53:47.356Z,14.35
2022-09-15T06:56:18.407Z,14.44
2022-09-15T06:58:48.983Z,14.39
2022-09-15T07:01:21.880Z,14.42
2022-09-15T07:03:50.519Z,14.36
2022-09-15T07:06:19.051Z,14.46
2022-09-15T07:08:47.960Z,13.60
2022-09-15T07:11:18.583Z,14.34
2022-09-15T07:13:47.099Z,14.27
2022-09-15T07:16:16.155Z,14.44
2022-09-15T07:18:44.816Z,14.00
2022-09-15T07:21:14.827Z,14.55
2022-09-15T07:23:43.605Z,14.62
2022-09-15T07:26:13.113Z,14.56
2022-09-15T07:28:45.661Z,14.55
2022-09-15T07:31:16.075Z,14.35
2022-09-15T07:33:44.232Z,14.53
2022-09-15T07:36:12.519Z,14.64
2022-09-15T07:38:42.879Z,14.78
2022-09-15T07:41:11.339Z,14.83
2022-09-15T07:43:39.580Z,14.81
2022-09-15T07:46:09.105Z,14.80
2022-09-15T07:48:37.214Z,14.87
2022-09-15T07:51:05.235Z,14.86
2022-09-15T07:53:33.130Z,14.95
2022-09-15T07:56:01.114Z,14.83
2022-09-15T07:58:29.214Z,14.60
2022-09-15T08:01:03.337Z,14.95
2022-09-15T08:03:33.245Z,15.00
2022-09-15T08:06:01.537Z,15.01
2022-09-15T08:08:30.474Z,14.59
2022-09-15T08:10:58.513Z,15.04
2022-09-15T08:13:26.440Z,15.15
2022-09-15T08:15:54.506Z,15.12
2022-09-15T08:18:22.691Z,15.33
2022-09-15T08:20:52.104Z,15.38
2022-09-15T08:23:19.936Z,15.38
2022-09-15T08:25:48.199Z,15.49
2022-09-15T08:28:16.088Z,15.07
2022-09-15T08:30:44.079Z,15.31
2022-09-15T08:33:12.001Z,15.53
2022-09-15T08:35:39.901Z,15.20
2022-09-15T08:38:09.189Z,15.53
2022-09-15T08:40:38.885Z,15.47
2022-09-15T08:43:17.028Z,15.38
2022-09-15T08:45:50.681Z,15.80
2022-09-15T08:48:22.647Z,15.90
2022-09-15T08:50:53.103Z,15.91
2022-09-15T08:53:27.230Z,15.98
2022-09-15T08:55:56.835Z,16.07
2022-09-15T08:58:26.983Z,16.23
2022-09-15T09:01:03.501Z,16.30
2022-09-15T09:04:06.683Z,16.38
2022-09-15T09:06:44.718Z,16.39
2022-09-15T09:09:25.679Z,16.45
2022-09-15T09:12:18.127Z,16.51
2022-09-15T09:14:59.904Z,16.24
2022-09-15T09:17:46.706Z,16.29
2022-09-15T09:20:33.732Z,16.44
2022-09-15T09:23:08.923Z,16.40
2022-09-15T09:25:38.779Z,16.18
2022-09-15T09:28:12.730Z,16.36
2022-09-15T09:30:41.740Z,16.38
2022-09-15T09:33:30.494Z,15.60
2022-09-15T09:36:01.280Z,16.62
2022-09-15T09:38:33.092Z,16.61
2022-09-15T09:41:03.476Z,16.52
2022-09-15T09:43:33.852Z,16.25
2022-09-15T09:46:02.540Z,16.62
2022-09-15T09:48:31.291Z,16.55
2022-09-15T09:50:59.298Z,16.60
2022-09-15T09:53:31.133Z,16.66
2022-09-15T09:56:24.661Z,15.87
2022-09-15T09:58:53.356Z,16.20
2022-09-15T10:01:23.999Z,16.76
2022-09-15T10:04:12.646Z,16.87
2022-09-15T10:06:45.462Z,16.95
2022-09-15T10:09:17.648Z,16.92
2022-09-15T10:11:50.110Z,16.98
2022-09-15T10:14:22.026Z,16.63
2022-09-15T10:17:01.933Z,17.27
2022-09-15T10:19:32.334Z,17.21
2022-09-15T10:22:01.967Z,17.51
2022-09-15T10:24:34.997Z,17.18
2022-09-15T10:27:19.865Z,17.19
2022-09-15T10:29:48.895Z,17.10
2022-09-15T10:32:24.312Z,17.13
2022-09-15T10:35:04.812Z,16.98
2022-09-15T10:37:44.864Z,16.98
2022-09-15T10:40:34.141Z,16.72
2022-09-15T10:43:22.569Z,17.02
2022-09-15T10:45:57.301Z,17.01
2022-09-15T10:48:49.339Z,16.85
2022-09-15T10:51:30.378Z,16.74
2022-09-15T10:54:21.088Z,17.00
2022-09-15T10:56:53.183Z,16.97
2022-09-15T10:59:39.239Z,17.06
2022-09-15T11:02:30.430Z,17.46
2022-09-15T11:05:20.530Z,17.22
2022-09-15T11:08:14.267Z,17.37
2022-09-15T11:10:50.508Z,17.32
2022-09-15T11:13:30.514Z,16.93
2022-09-15T11:16:09.646Z,17.22
2022-09-15T11:19:00.391Z,17.24
2022-09-15T11:21:33.885Z,17.31
2022-09-15T11:24:28.648Z,17.39
2022-09-15T11:27:01.851Z,17.43
2022-09-15T11:29:35.001Z,17.45
2022-09-15T11:32:11.086Z,17.63
2022-09-15T11:34:45.926Z,17.77
2022-09-15T11:37:18.453Z,17.88
2022-09-15T11:39:51.510Z,17.69
2022-09-15T11:42:26.330Z,17.68
2022-09-15T11:44:57.343Z,17.62
2022-09-15T11:47:32.840Z,17.86
2022-09-15T11:50:07.376Z,17.63
2022-09-15T11:52:47.864Z,17.86
2022-09-15T11:55:24.363Z,17.91
2022-09-15T11:57:58.305Z,18.21
2022-09-15T12:00:26.371Z,18.06
2022-09-15T12:03:11.619Z,18.49
2022-09-15T12:05:44.438Z,18.50
2022-09-15T12:08:20.345Z,18.41
2022-09-15T12:10:53.270Z,18.27
2022-09-15T12:13:23.060Z,17.93
2022-09-15T12:15:52.433Z,17.92
2022-09-15T12:18:46.765Z,17.86
2022-09-15T12:21:20.850Z,17.93
2022-09-15T12:23:57.588Z,18.03
2022-09-15T12:26:28.831Z,18.01
2022-09-15T12:29:02.346Z,17.42
2022-09-15T12:31:38.346Z,17.97
2022-09-15T12:34:38.337Z,17.94
2022-09-15T12:37:12.778Z,17.95
2022-09-15T12:39:43.090Z,17.37
2022-09-15T12:42:18.626Z,17.99
2022-09-15T12:44:51.756Z,17.88
2022-09-15T12:47:25.501Z,18.00
2022-09-15T12:49:58.985Z,18.16
2022-09-15T12:52:27.542Z,18.08
2022-09-15T12:55:01.094Z,17.69
2022-09-15T12:57:31.975Z,18.42
2022-09-15T13:00:28.864Z,18.44
2022-09-15T13:02:58.114Z,18.19
2022-09-15T13:06:18.296Z,18.18
2022-09-15T13:08:52.905Z,18.15
2022-09-15T13:11:26.960Z,18.30
2022-09-15T13:14:07.834Z,17.56
2022-09-15T13:16:45.727Z,18.05
2022-09-15T13:19:18.318Z,17.87
2022-09-15T13:21:53.763Z,16.70
2022-09-15T13:24:30.991Z,17.84
2022-09-15T13:26:59.546Z,17.15
2022-09-15T13:29:32.191Z,17.72
2022-09-15T13:32:10.199Z,17.77
2022-09-15T13:35:20.711Z,17.89
2022-09-15T13:38:22.992Z,17.90
2022-09-15T13:41:20.919Z,17.93
2022-09-15T13:44:07.953Z,17.74
2022-09-15T13:46:50.118Z,18.11
2022-09-15T13:49:46.098Z,18.12
2022-09-15T13:52:26.298Z,18.16
2022-09-15T13:55:18.720Z,18.17
2022-09-15T14:00:55.276Z,17.98
2022-09-15T14:03:28.229Z,17.61
2022-09-15T14:05:57.585Z,17.64
2022-09-15T14:08:28.457Z,17.54
2022-09-15T14:10:59.469Z,17.64
2022-09-15T14:13:30.654Z,17.44
2022-09-15T14:16:00.965Z,17.62
2022-09-15T14:18:29.675Z,17.46
2022-09-15T14:21:02.895Z,17.37
2022-09-15T14:23:32.654Z,17.39
2022-09-15T14:26:02.419Z,17.39
2022-09-15T14:28:33.931Z,17.33
2022-09-15T14:31:03.235Z,16.75
2022-09-15T14:33:38.088Z,17.21
2022-09-15T14:36:23.455Z,17.04
2022-09-15T14:39:17.875Z,16.96
2022-09-15T14:41:46.604Z,16.74
2022-09-15T14:47:20.529Z,17.08
2022-09-15T14:49:48.916Z,17.00
2022-09-15T14:52:29.872Z,17.27
2022-09-15T14:55:02.914Z,16.98
2022-09-15T14:57:36.807Z,17.24
2022-09-15T15:00:11.353Z,17.06
2022-09-15T15:02:54.168Z,17.02
2022-09-15T15:05:26.099Z,17.35
2022-09-15T15:07:55.721Z,17.39
2022-09-15T15:10:27.993Z,16.98
2022-09-15T15:13:01.639Z,17.22
2022-09-15T15:15:33.135Z,17.39
2022-09-15T15:18:01.527Z,17.01
2022-09-15T15:20:31.404Z,17.35
2022-09-15T15:23:13.822Z,17.45
2022-09-15T15:25:43.092Z,17.34
2022-09-15T15:28:32.825Z,17.32
2022-09-15T15:31:13.691Z,17.17
2022-09-15T15:33:48.086Z,17.07
2022-09-15T15:36:16.476Z,17.06
2022-09-15T15:38:50.704Z,17.09
2022-09-15T15:41:22.819Z,17.04
2022-09-15T15:44:03.403Z,17.03
2022-09-15T15:46:53.423Z,17.04
2022-09-15T15:49:25.779Z,16.94
2022-09-15T15:51:55.295Z,16.88
2022-09-15T15:54:23.906Z,16.48
2022-09-15T15:56:52.309Z,16.75
2022-09-15T15:59:20.700Z,16.90
2022-09-15T16:01:52.912Z,16.70
2022-09-15T16:04:21.295Z,16.49
2022-09-15T16:06:49.579Z,16.62
2022-09-15T16:09:19.373Z,16.52
2022-09-15T16:11:47.878Z,16.49
2022-09-15T16:14:15.999Z,16.62
2022-09-15T16:16:44.675Z,16.60
2022-09-15T16:19:14.249Z,16.52
2022-09-15T16:21:44.014Z,16.51
2022-09-15T16:24:14.685Z,16.50
2022-09-15T16:26:43.108Z,16.35
2022-09-15T16:29:11.655Z,16.34
2022-09-15T16:31:40.502Z,16.26
2022-09-15T16:34:10.975Z,16.10
2022-09-15T16:36:40.475Z,16.17
2022-09-15T16:39:08.382Z,16.20
2022-09-15T16:41:39.279Z,16.24
2022-09-15T16:44:15.603Z,15.97
2022-09-15T16:46:43.653Z,16.24
2022-09-15T16:49:11.630Z,15.64
2022-09-15T16:51:41.301Z,16.18
2022-09-15T16:54:16.314Z,16.07
2022-09-15T16:56:45.253Z,16.14
2022-09-15T16:59:13.412Z,16.02
2022-09-15T17:01:41.542Z,15.93
2022-09-15T17:04:13.875Z,15.96
2022-09-15T17:06:43.194Z,16.15
2022-09-15T17:09:11.115Z,15.75
2022-09-15T17:11:39.180Z,16.26
2022-09-15T17:14:07.492Z,16.30
2022-09-15T17:16:35.901Z,16.17
2022-09-15T17:19:03.890Z,16.04
2022-09-15T17:21:32.290Z,16.09
2022-09-15T17:24:01.651Z,16.07
2022-09-15T17:26:31.686Z,15.73
2022-09-15T17:28:59.947Z,15.98
2022-09-15T17:31:28.213Z,15.91
2022-09-15T17:33:56.375Z,15.81
2022-09-15T17:36:24.363Z,15.78
2022-09-15T17:38:52.709Z,15.66
2022-09-15T17:41:23.012Z,15.63
2022-09-15T17:43:51.361Z,15.72
2022-09-15T17:46:20.502Z,14.48
2022-09-15T17:48:48.429Z,14.11
2022-09-15T17:51:18.418Z,15.24
2022-09-15T17:53:47.659Z,15.27
2022-09-15T17:56:15.658Z,15.34
2022-09-15T17:58:45.587Z,15.28
2022-09-15T18:01:15.285Z,15.21
2022-09-15T18:03:44.764Z,15.19
2022-09-15T18:06:13.405Z,14.68
2022-09-15T18:08:41.386Z,14.84
2022-09-15T18:11:09.549Z,14.71
2022-09-15T18:13:37.942Z,14.70
2022-09-15T18:16:12.246Z,14.85
2022-09-15T18:18:41.134Z,14.75
2022-09-15T18:21:12.263Z,14.85
2022-09-15T18:23:42.432Z,14.78
2022-09-15T18:26:10.273Z,14.89
2022-09-15T18:28:38.339Z,14.62
2022-09-15T18:31:08.083Z,14.64
2022-09-15T18:33:36.143Z,14.56
2022-09-15T18:36:07.369Z,14.91
2022-09-15T18:38:35.463Z,14.85
2022-09-15T18:41:04.565Z,14.80
2022-09-15T18:43:32.476Z,14.75
2022-09-15T18:46:01.022Z,14.50
2022-09-15T18:48:30.624Z,14.77
2022-09-15T18:50:58.699Z,14.84
2022-09-15T18:53:26.673Z,14.77
2022-09-15T18:55:54.716Z,14.59
2022-09-15T18:58:22.718Z,14.82
2022-09-15T19:00:50.729Z,13.55
2022-09-15T19:03:18.808Z,14.75
2022-09-15T19:05:48.611Z,14.51
2022-09-15T19:08:17.018Z,14.59
2022-09-15T19:10:45.055Z,14.55
2022-09-15T19:13:14.297Z,14.47
2022-09-15T19:15:44.086Z,14.31
2022-09-15T19:18:12.286Z,14.34
2022-09-15T19:20:40.856Z,14.52
2022-09-15T19:23:11.071Z,14.62
2022-09-15T19:25:41.581Z,14.51
2022-09-15T19:28:09.747Z,14.53
2022-09-15T19:30:37.805Z,14.36
2022-09-15T19:33:06.001Z,14.39
2022-09-15T19:35:34.130Z,14.21
2022-09-15T19:38:02.696Z,14.10
2022-09-15T19:40:32.181Z,14.27
2022-09-15T19:43:00.693Z,14.46
2022-09-15T19:45:28.791Z,14.43
2022-09-15T19:47:57.119Z,14.34
2022-09-15T19:50:27.940Z,13.89
2022-09-15T19:52:58.965Z,14.32
2022-09-15T19:55:28.944Z,14.48
2022-09-15T19:57:58.362Z,14.41
2022-09-15T20:00:26.541Z,14.53
2022-09-15T20:02:54.564Z,14.59
2022-09-15T20:05:22.906Z,14.50
2022-09-15T20:07:50.936Z,14.57
2022-09-15T20:10:19.042Z,14.48
2022-09-15T20:12:47.035Z,14.35
2022-09-15T20:15:16.497Z,14.22
2022-09-15T20:17:44.568Z,13.91
2022-09-15T20:20:12.671Z,14.12
2022-09-15T20:22:40.745Z,14.24
2022-09-15T20:25:09.168Z,13.80
2022-09-15T20:27:37.084Z,13.78
2022-09-15T20:30:06.285Z,14.26
2022-09-15T20:32:35.575Z,13.75
2022-09-15T20:35:04.530Z,14.18
2022-09-15T20:37:37.276Z,13.71
2022-09-15T20:40:06.795Z,14.31
2022-09-15T20:42:34.756Z,13.64
2022-09-15T20:45:03.074Z,14.11
2022-09-15T20:47:31.354Z,14.25
2022-09-15T20:50:00.787Z,14.21
2022-09-15T20:52:35.869Z,14.14
2022-09-15T20:55:06.773Z,14.32
2022-09-15T20:57:34.921Z,14.40
2022-09-15T21:00:04.771Z,14.21
2022-09-15T21:02:33.191Z,14.02
2022-09-15T21:05:02.653Z,14.20
2022-09-15T21:07:30.770Z,14.18
2022-09-15T21:09:58.737Z,14.00
2022-09-15T21:12:26.828Z,13.79
2022-09-15T21:14:55.404Z,14.35
2022-09-15T21:17:23.554Z,14.14
2022-09-15T21:19:51.455Z,14.27
2022-09-15T21:22:20.731Z,13.78
2022-09-15T21:24:48.611Z,14.02
2022-09-15T21:27:28.811Z,14.27
2022-09-15T21:29:56.722Z,13.47
2022-09-15T21:32:25.263Z,14.25
2022-09-15T21:34:55.808Z,14.22
2022-09-15T21:37:27.041Z,14.02
2022-09-15T21:39:54.977Z,14.13
2022-09-15T21:42:23.054Z,14.11
2022-09-15T21:44:50.928Z,13.94
2022-09-15T21:47:19.526Z,14.01
2022-09-15T21:49:47.520Z,14.17
2022-09-15T21:52:15.735Z,14.15
2022-09-15T21:54:45.476Z,12.41
2022-09-15T21:57:15.468Z,13.96
2022-09-15T21:59:43.484Z,13.95
2022-09-15T22:02:12.107Z,14.02
2022-09-15T22:04:41.056Z,14.12
2022-09-15T22:07:11.099Z,14.08
2022-09-15T22:09:39.677Z,13.91
2022-09-15T22:12:09.676Z,14.05
2022-09-15T22:14:37.622Z,14.01
2022-09-15T22:17:05.488Z,13.75
2022-09-15T22:19:33.354Z,13.49
2022-09-15T22:22:01.310Z,13.69
2022-09-15T22:24:29.216Z,13.02
2022-09-15T22:26:57.326Z,13.73
2022-09-15T22:29:26.675Z,13.10
2022-09-15T22:31:54.665Z,13.52
2022-09-15T22:34:22.631Z,13.61
2022-09-15T22:36:50.598Z,13.58
2022-09-15T22:39:18.478Z,13.35
2022-09-15T22:41:46.390Z,13.41
2022-09-15T22:44:19.689Z,13.06
2022-09-15T22:46:51.545Z,13.44
2022-09-15T22:49:19.810Z,13.11
2022-09-15T22:51:47.647Z,13.24
2022-09-15T22:54:16.040Z,13.19
2022-09-15T22:56:43.943Z,13.38
2022-09-15T22:59:11.890Z,13.24
2022-09-15T23:01:39.810Z,13.27
2022-09-15T23:04:09.133Z,13.15
2022-09-15T23:06:37.130Z,13.07
2022-09-15T23:09:08.865Z,13.20
2022-09-15T23:11:39.659Z,13.24
2022-09-15T23:14:08.704Z,13.19
2022-09-15T23:16:36.728Z,13.21
2022-09-15T23:19:05.271Z,13.25
2022-09-15T23:21:34.799Z,12.11
2022-09-15T23:24:03.302Z,13.17
2022-09-15T23:26:31.500Z,13.16
2022-09-15T23:28:59.448Z,13.17
2022-09-15T23:31:27.505Z,13.17
2022-09-15T23:33:55.474Z,13.08
2022-09-15T23:36:23.583Z,13.23
2022-09-15T23:38:53.019Z,13.17
2022-09-15T23:41:21.260Z,13.05
2022-09-15T23:43:49.273Z,13.13
2022-09-15T23:46:17.434Z,13.06
2022-09-15T23:48:45.414Z,12.99
2022-09-15T23:51:13.305Z,12.72
2022-09-15T23:53:41.404Z,12.92
2022-09-15T23:56:10.757Z,12.97
2022-09-15T23:58:39.559Z,12.98
